sensor_id;sensor_type;location;lat;lon;timestamp;P1;durP1;ratioP1;P2;durP2;ratioP2
11943;SDS011;6031;50.220;10.122;2023-02-22T00:00:20;38.70;;;9.87;;
11943;SDS011;6031;50.220;10.122;2023-02-22T00:02:51;36.23;;;11.47;;
11943;SDS011;6031;50.220;10.122;2023-02-22T00:05:23;17.73;;;8.30;;
11943;SDS011;6031;50.220;10.122;2023-02-22T00:07:50;17.67;;;9.20;;
11943;SDS011;6031;50.220;10.122;2023-02-22T00:10:15;16.17;;;9.23;;
11943;SDS011;6031;50.220;10.122;2023-02-22T00:12:45;45.40;;;11.43;;
11943;SDS011;6031;50.220;10.122;2023-02-22T00:15:15;22.97;;;9.80;;
11943;SDS011;6031;50.220;10.122;2023-02-22T00:17:42;23.97;;;10.50;;
11943;SDS011;6031;50.220;10.122;2023-02-22T00:20:08;26.80;;;8.50;;
11943;SDS011;6031;50.220;10.122;2023-02-22T00:22:43;23.70;;;9.23;;
11943;SDS011;6031;50.220;10.122;2023-02-22T00:25:13;15.63;;;8.07;;
11943;SDS011;6031;50.220;10.122;2023-02-22T00:27:42;18.63;;;7.90;;
11943;SDS011;6031;50.220;10.122;2023-02-22T00:30:08;18.17;;;8.63;;
11943;SDS011;6031;50.220;10.122;2023-02-22T00:32:42;22.17;;;8.17;;
11943;SDS011;6031;50.220;10.122;2023-02-22T00:35:09;16.33;;;8.10;;
11943;SDS011;6031;50.220;10.122;2023-02-22T00:37:34;21.67;;;8.07;;
11943;SDS011;6031;50.220;10.122;2023-02-22T00:40:00;14.57;;;7.63;;
11943;SDS011;6031;50.220;10.122;2023-02-22T00:42:25;13.40;;;7.17;;
11943;SDS011;6031;50.220;10.122;2023-02-22T00:44:51;12.70;;;7.70;;
11943;SDS011;6031;50.220;10.122;2023-02-22T00:47:17;21.03;;;7.43;;
11943;SDS011;6031;50.220;10.122;2023-02-22T00:49:42;12.97;;;6.30;;
11943;SDS011;6031;50.220;10.122;2023-02-22T00:52:08;14.33;;;6.80;;
11943;SDS011;6031;50.220;10.122;2023-02-22T00:54:33;9.80;;;6.47;;
11943;SDS011;6031;50.220;10.122;2023-02-22T00:56:59;15.23;;;7.23;;
11943;SDS011;6031;50.220;10.122;2023-02-22T00:59:25;10.47;;;6.13;;
11943;SDS011;6031;50.220;10.122;2023-02-22T01:01:51;8.43;;;5.97;;
11943;SDS011;6031;50.220;10.122;2023-02-22T01:04:17;7.70;;;5.80;;
11943;SDS011;6031;50.220;10.122;2023-02-22T01:06:42;8.60;;;6.07;;
11943;SDS011;6031;50.220;10.122;2023-02-22T01:09:08;9.97;;;6.40;;
11943;SDS011;6031;50.220;10.122;2023-02-22T01:11:33;9.30;;;5.80;;
11943;SDS011;6031;50.220;10.122;2023-02-22T01:13:59;7.23;;;5.00;;
11943;SDS011;6031;50.220;10.122;2023-02-22T01:16:24;9.80;;;5.60;;
11943;SDS011;6031;50.220;10.122;2023-02-22T01:18:50;14.73;;;6.17;;
11943;SDS011;6031;50.220;10.122;2023-02-22T01:21:16;12.77;;;6.93;;
11943;SDS011;6031;50.220;10.122;2023-02-22T01:23:44;11.90;;;6.80;;
11943;SDS011;6031;50.220;10.122;2023-02-22T01:26:10;11.20;;;6.37;;
11943;SDS011;6031;50.220;10.122;2023-02-22T01:28:37;12.00;;;6.07;;
11943;SDS011;6031;50.220;10.122;2023-02-22T01:31:03;11.77;;;6.63;;
11943;SDS011;6031;50.220;10.122;2023-02-22T01:33:29;16.77;;;6.00;;
11943;SDS011;6031;50.220;10.122;2023-02-22T01:35:55;13.27;;;6.20;;
11943;SDS011;6031;50.220;10.122;2023-02-22T01:38:20;13.67;;;6.53;;
11943;SDS011;6031;50.220;10.122;2023-02-22T01:40:48;7.70;;;5.77;;
11943;SDS011;6031;50.220;10.122;2023-02-22T01:43:22;11.57;;;6.47;;
11943;SDS011;6031;50.220;10.122;2023-02-22T01:45:54;11.57;;;5.80;;
11943;SDS011;6031;50.220;10.122;2023-02-22T01:48:29;12.80;;;7.67;;
11943;SDS011;6031;50.220;10.122;2023-02-22T01:51:23;10.13;;;6.47;;
11943;SDS011;6031;50.220;10.122;2023-02-22T01:53:52;10.33;;;5.73;;
11943;SDS011;6031;50.220;10.122;2023-02-22T01:56:21;14.67;;;5.50;;
11943;SDS011;6031;50.220;10.122;2023-02-22T01:58:49;6.20;;;5.20;;
11943;SDS011;6031;50.220;10.122;2023-02-22T02:01:19;28.03;;;5.60;;
11943;SDS011;6031;50.220;10.122;2023-02-22T02:03:47;9.57;;;4.03;;
11943;SDS011;6031;50.220;10.122;2023-02-22T02:06:13;7.03;;;4.50;;
11943;SDS011;6031;50.220;10.122;2023-02-22T02:08:53;9.93;;;5.03;;
11943;SDS011;6031;50.220;10.122;2023-02-22T02:11:26;7.43;;;5.07;;
11943;SDS011;6031;50.220;10.122;2023-02-22T02:13:53;5.93;;;4.70;;
11943;SDS011;6031;50.220;10.122;2023-02-22T02:16:21;11.53;;;5.77;;
11943;SDS011;6031;50.220;10.122;2023-02-22T02:18:50;8.27;;;5.00;;
11943;SDS011;6031;50.220;10.122;2023-02-22T02:21:40;12.70;;;7.43;;
11943;SDS011;6031;50.220;10.122;2023-02-22T02:24:16;17.60;;;10.37;;
11943;SDS011;6031;50.220;10.122;2023-02-22T02:29:45;9.53;;;6.03;;
11943;SDS011;6031;50.220;10.122;2023-02-22T02:35:45;5.70;;;4.37;;
11943;SDS011;6031;50.220;10.122;2023-02-22T02:38:30;8.37;;;4.27;;
11943;SDS011;6031;50.220;10.122;2023-02-22T02:41:04;5.63;;;4.13;;
11943;SDS011;6031;50.220;10.122;2023-02-22T02:48:49;7.03;;;4.93;;
11943;SDS011;6031;50.220;10.122;2023-02-22T02:51:20;10.57;;;5.17;;
11943;SDS011;6031;50.220;10.122;2023-02-22T02:53:47;7.83;;;6.20;;
11943;SDS011;6031;50.220;10.122;2023-02-22T02:56:15;11.00;;;5.20;;
11943;SDS011;6031;50.220;10.122;2023-02-22T02:58:48;11.50;;;5.70;;
11943;SDS011;6031;50.220;10.122;2023-02-22T03:01:19;7.73;;;5.17;;
11943;SDS011;6031;50.220;10.122;2023-02-22T03:04:50;8.53;;;5.90;;
11943;SDS011;6031;50.220;10.122;2023-02-22T03:12:20;13.50;;;7.20;;
11943;SDS011;6031;50.220;10.122;2023-02-22T03:17:36;13.70;;;6.97;;
11943;SDS011;6031;50.220;10.122;2023-02-22T03:20:19;10.30;;;6.07;;
11943;SDS011;6031;50.220;10.122;2023-02-22T03:23:05;9.97;;;6.20;;
11943;SDS011;6031;50.220;10.122;2023-02-22T03:25:37;7.47;;;5.80;;
11943;SDS011;6031;50.220;10.122;2023-02-22T03:28:08;10.10;;;6.33;;
11943;SDS011;6031;50.220;10.122;2023-02-22T03:30:38;9.40;;;5.60;;
11943;SDS011;6031;50.220;10.122;2023-02-22T03:33:15;9.63;;;6.43;;
11943;SDS011;6031;50.220;10.122;2023-02-22T03:35:47;8.77;;;6.20;;
11943;SDS011;6031;50.220;10.122;2023-02-22T03:38:20;10.00;;;5.93;;
11943;SDS011;6031;50.220;10.122;2023-02-22T03:40:49;9.50;;;6.00;;
11943;SDS011;6031;50.220;10.122;2023-02-22T03:43:20;10.43;;;5.60;;
11943;SDS011;6031;50.220;10.122;2023-02-22T03:45:48;10.40;;;5.40;;
11943;SDS011;6031;50.220;10.122;2023-02-22T03:48:19;13.37;;;5.03;;
11943;SDS011;6031;50.220;10.122;2023-02-22T03:50:50;6.87;;;5.33;;
11943;SDS011;6031;50.220;10.122;2023-02-22T03:53:17;12.10;;;5.47;;
11943;SDS011;6031;50.220;10.122;2023-02-22T03:58:36;11.57;;;5.47;;
11943;SDS011;6031;50.220;10.122;2023-02-22T04:01:04;15.60;;;5.77;;
11943;SDS011;6031;50.220;10.122;2023-02-22T04:03:29;9.17;;;6.50;;
11943;SDS011;6031;50.220;10.122;2023-02-22T04:05:55;15.33;;;6.20;;
11943;SDS011;6031;50.220;10.122;2023-02-22T04:08:20;11.43;;;5.57;;
11943;SDS011;6031;50.220;10.122;2023-02-22T04:10:46;7.07;;;4.97;;
11943;SDS011;6031;50.220;10.122;2023-02-22T04:13:11;11.43;;;5.47;;
11943;SDS011;6031;50.220;10.122;2023-02-22T04:15:38;10.40;;;4.80;;
11943;SDS011;6031;50.220;10.122;2023-02-22T04:18:04;8.40;;;5.20;;
11943;SDS011;6031;50.220;10.122;2023-02-22T04:20:30;6.43;;;5.10;;
11943;SDS011;6031;50.220;10.122;2023-02-22T04:22:55;7.80;;;4.90;;
11943;SDS011;6031;50.220;10.122;2023-02-22T04:25:21;8.97;;;4.53;;
11943;SDS011;6031;50.220;10.122;2023-02-22T04:27:47;7.07;;;4.57;;
11943;SDS011;6031;50.220;10.122;2023-02-22T04:30:15;6.67;;;4.80;;
11943;SDS011;6031;50.220;10.122;2023-02-22T04:32:42;8.47;;;5.30;;
11943;SDS011;6031;50.220;10.122;2023-02-22T04:35:07;13.73;;;6.33;;
11943;SDS011;6031;50.220;10.122;2023-02-22T04:37:33;7.17;;;5.17;;
11943;SDS011;6031;50.220;10.122;2023-02-22T04:39:59;7.20;;;4.80;;
11943;SDS011;6031;50.220;10.122;2023-02-22T04:42:26;10.07;;;5.77;;
11943;SDS011;6031;50.220;10.122;2023-02-22T04:44:52;8.77;;;5.17;;
11943;SDS011;6031;50.220;10.122;2023-02-22T04:47:17;8.77;;;5.90;;
11943;SDS011;6031;50.220;10.122;2023-02-22T04:49:43;11.83;;;6.70;;
11943;SDS011;6031;50.220;10.122;2023-02-22T04:52:09;15.27;;;8.43;;
11943;SDS011;6031;50.220;10.122;2023-02-22T04:54:35;12.53;;;7.53;;
11943;SDS011;6031;50.220;10.122;2023-02-22T04:57:00;17.50;;;8.10;;
11943;SDS011;6031;50.220;10.122;2023-02-22T04:59:26;11.73;;;8.03;;
11943;SDS011;6031;50.220;10.122;2023-02-22T05:01:52;12.87;;;7.43;;
11943;SDS011;6031;50.220;10.122;2023-02-22T05:04:17;11.70;;;6.63;;
11943;SDS011;6031;50.220;10.122;2023-02-22T05:06:43;10.63;;;6.53;;
11943;SDS011;6031;50.220;10.122;2023-02-22T05:09:08;11.67;;;6.30;;
11943;SDS011;6031;50.220;10.122;2023-02-22T05:11:34;12.50;;;7.30;;
11943;SDS011;6031;50.220;10.122;2023-02-22T05:13:59;9.53;;;6.50;;
11943;SDS011;6031;50.220;10.122;2023-02-22T05:16:25;12.30;;;6.57;;
11943;SDS011;6031;50.220;10.122;2023-02-22T05:18:50;10.93;;;7.47;;
11943;SDS011;6031;50.220;10.122;2023-02-22T05:21:16;14.50;;;7.70;;
11943;SDS011;6031;50.220;10.122;2023-02-22T05:23:41;13.77;;;8.60;;
11943;SDS011;6031;50.220;10.122;2023-02-22T05:26:07;14.33;;;8.33;;
11943;SDS011;6031;50.220;10.122;2023-02-22T05:28:34;18.53;;;8.63;;
11943;SDS011;6031;50.220;10.122;2023-02-22T05:31:00;10.20;;;6.73;;
11943;SDS011;6031;50.220;10.122;2023-02-22T05:33:25;15.87;;;9.10;;
11943;SDS011;6031;50.220;10.122;2023-02-22T05:35:51;17.33;;;10.07;;
11943;SDS011;6031;50.220;10.122;2023-02-22T05:38:16;10.97;;;7.20;;
11943;SDS011;6031;50.220;10.122;2023-02-22T05:40:42;15.90;;;8.67;;
11943;SDS011;6031;50.220;10.122;2023-02-22T05:43:07;18.30;;;9.80;;
11943;SDS011;6031;50.220;10.122;2023-02-22T05:45:33;14.60;;;9.70;;
11943;SDS011;6031;50.220;10.122;2023-02-22T05:48:00;11.60;;;8.10;;
11943;SDS011;6031;50.220;10.122;2023-02-22T05:50:26;11.57;;;7.30;;
11943;SDS011;6031;50.220;10.122;2023-02-22T05:52:52;23.20;;;13.37;;
11943;SDS011;6031;50.220;10.122;2023-02-22T05:55:20;18.00;;;10.67;;
11943;SDS011;6031;50.220;10.122;2023-02-22T05:57:47;20.47;;;13.80;;
11943;SDS011;6031;50.220;10.122;2023-02-22T06:00:18;14.83;;;11.17;;
11943;SDS011;6031;50.220;10.122;2023-02-22T06:03:03;21.67;;;16.87;;
11943;SDS011;6031;50.220;10.122;2023-02-22T06:05:30;18.97;;;11.77;;
11943;SDS011;6031;50.220;10.122;2023-02-22T06:07:57;12.00;;;9.73;;
11943;SDS011;6031;50.220;10.122;2023-02-22T06:10:23;14.47;;;8.57;;
11943;SDS011;6031;50.220;10.122;2023-02-22T06:12:50;12.00;;;6.63;;
11943;SDS011;6031;50.220;10.122;2023-02-22T06:15:16;9.50;;;6.50;;
11943;SDS011;6031;50.220;10.122;2023-02-22T06:17:42;9.70;;;6.07;;
11943;SDS011;6031;50.220;10.122;2023-02-22T06:20:09;8.57;;;6.00;;
11943;SDS011;6031;50.220;10.122;2023-02-22T06:22:35;11.87;;;5.77;;
11943;SDS011;6031;50.220;10.122;2023-02-22T06:25:01;9.23;;;6.40;;
11943;SDS011;6031;50.220;10.122;2023-02-22T06:27:32;7.73;;;5.70;;
11943;SDS011;6031;50.220;10.122;2023-02-22T06:29:59;11.40;;;6.77;;
11943;SDS011;6031;50.220;10.122;2023-02-22T06:32:25;10.50;;;6.83;;
11943;SDS011;6031;50.220;10.122;2023-02-22T06:34:51;12.03;;;7.47;;
11943;SDS011;6031;50.220;10.122;2023-02-22T06:37:16;9.53;;;6.00;;
11943;SDS011;6031;50.220;10.122;2023-02-22T06:39:42;10.67;;;6.83;;
11943;SDS011;6031;50.220;10.122;2023-02-22T06:42:08;9.73;;;6.60;;
11943;SDS011;6031;50.220;10.122;2023-02-22T06:44:34;7.70;;;6.60;;
11943;SDS011;6031;50.220;10.122;2023-02-22T06:46:59;8.00;;;6.50;;
11943;SDS011;6031;50.220;10.122;2023-02-22T06:49:25;10.17;;;6.33;;
11943;SDS011;6031;50.220;10.122;2023-02-22T06:51:52;6.50;;;5.57;;
11943;SDS011;6031;50.220;10.122;2023-02-22T06:54:18;6.67;;;6.00;;
11943;SDS011;6031;50.220;10.122;2023-02-22T06:56:44;7.93;;;5.57;;
11943;SDS011;6031;50.220;10.122;2023-02-22T06:59:09;6.73;;;5.57;;
11943;SDS011;6031;50.220;10.122;2023-02-22T07:01:35;8.73;;;6.23;;
11943;SDS011;6031;50.220;10.122;2023-02-22T07:04:01;7.53;;;6.43;;
11943;SDS011;6031;50.220;10.122;2023-02-22T07:06:26;7.57;;;5.57;;
11943;SDS011;6031;50.220;10.122;2023-02-22T07:08:52;7.57;;;6.40;;
11943;SDS011;6031;50.220;10.122;2023-02-22T07:11:18;6.10;;;5.30;;
11943;SDS011;6031;50.220;10.122;2023-02-22T07:13:44;4.77;;;4.30;;
11943;SDS011;6031;50.220;10.122;2023-02-22T07:16:09;5.93;;;5.43;;
11943;SDS011;6031;50.220;10.122;2023-02-22T07:18:35;8.60;;;6.10;;
11943;SDS011;6031;50.220;10.122;2023-02-22T07:21:00;6.70;;;5.80;;
11943;SDS011;6031;50.220;10.122;2023-02-22T07:23:26;7.57;;;5.97;;
11943;SDS011;6031;50.220;10.122;2023-02-22T07:25:51;7.83;;;5.83;;
11943;SDS011;6031;50.220;10.122;2023-02-22T07:28:17;6.77;;;5.40;;
11943;SDS011;6031;50.220;10.122;2023-02-22T07:30:42;7.13;;;6.43;;
11943;SDS011;6031;50.220;10.122;2023-02-22T07:33:09;6.27;;;5.63;;
11943;SDS011;6031;50.220;10.122;2023-02-22T07:35:43;8.50;;;6.17;;
11943;SDS011;6031;50.220;10.122;2023-02-22T07:38:11;7.47;;;5.90;;
11943;SDS011;6031;50.220;10.122;2023-02-22T07:40:37;7.60;;;5.83;;
11943;SDS011;6031;50.220;10.122;2023-02-22T07:43:23;6.60;;;5.90;;
11943;SDS011;6031;50.220;10.122;2023-02-22T07:45:52;8.80;;;6.20;;
11943;SDS011;6031;50.220;10.122;2023-02-22T07:48:20;7.50;;;6.30;;
11943;SDS011;6031;50.220;10.122;2023-02-22T07:50:47;9.73;;;6.77;;
11943;SDS011;6031;50.220;10.122;2023-02-22T07:53:15;16.60;;;6.63;;
11943;SDS011;6031;50.220;10.122;2023-02-22T07:55:48;13.20;;;7.70;;
11943;SDS011;6031;50.220;10.122;2023-02-22T07:58:15;8.03;;;6.47;;
11943;SDS011;6031;50.220;10.122;2023-02-22T08:00:45;8.40;;;6.80;;
11943;SDS011;6031;50.220;10.122;2023-02-22T08:03:14;9.60;;;6.60;;
11943;SDS011;6031;50.220;10.122;2023-02-22T08:05:43;12.60;;;7.93;;
11943;SDS011;6031;50.220;10.122;2023-02-22T08:08:10;8.83;;;7.30;;
11943;SDS011;6031;50.220;10.122;2023-02-22T08:10:36;11.63;;;7.77;;
11943;SDS011;6031;50.220;10.122;2023-02-22T08:13:02;7.93;;;6.10;;
11943;SDS011;6031;50.220;10.122;2023-02-22T08:15:29;9.97;;;7.90;;
11943;SDS011;6031;50.220;10.122;2023-02-22T08:17:57;8.43;;;6.77;;
11943;SDS011;6031;50.220;10.122;2023-02-22T08:20:25;11.97;;;8.17;;
11943;SDS011;6031;50.220;10.122;2023-02-22T08:22:51;8.47;;;7.07;;
11943;SDS011;6031;50.220;10.122;2023-02-22T08:25:18;9.17;;;8.10;;
11943;SDS011;6031;50.220;10.122;2023-02-22T08:27:45;9.20;;;7.70;;
11943;SDS011;6031;50.220;10.122;2023-02-22T08:30:15;11.80;;;8.27;;
11943;SDS011;6031;50.220;10.122;2023-02-22T08:32:43;11.93;;;8.17;;
11943;SDS011;6031;50.220;10.122;2023-02-22T08:35:10;8.13;;;6.37;;
11943;SDS011;6031;50.220;10.122;2023-02-22T08:37:40;12.57;;;6.87;;
11943;SDS011;6031;50.220;10.122;2023-02-22T08:40:07;8.40;;;6.13;;
11943;SDS011;6031;50.220;10.122;2023-02-22T08:42:33;6.60;;;5.80;;
11943;SDS011;6031;50.220;10.122;2023-02-22T08:44:58;7.80;;;5.80;;
11943;SDS011;6031;50.220;10.122;2023-02-22T08:47:24;11.80;;;6.70;;
11943;SDS011;6031;50.220;10.122;2023-02-22T08:49:49;7.43;;;6.73;;
11943;SDS011;6031;50.220;10.122;2023-02-22T08:52:15;9.27;;;6.40;;
11943;SDS011;6031;50.220;10.122;2023-02-22T08:54:40;9.80;;;5.83;;
11943;SDS011;6031;50.220;10.122;2023-02-22T08:57:06;8.13;;;6.23;;
11943;SDS011;6031;50.220;10.122;2023-02-22T08:59:31;8.07;;;6.70;;
11943;SDS011;6031;50.220;10.122;2023-02-22T09:01:57;7.87;;;6.20;;
11943;SDS011;6031;50.220;10.122;2023-02-22T09:04:22;9.43;;;6.63;;
11943;SDS011;6031;50.220;10.122;2023-02-22T09:06:48;50.07;;;23.53;;
11943;SDS011;6031;50.220;10.122;2023-02-22T09:09:16;17.27;;;9.57;;
11943;SDS011;6031;50.220;10.122;2023-02-22T09:11:44;12.13;;;8.80;;
11943;SDS011;6031;50.220;10.122;2023-02-22T09:14:10;9.27;;;7.77;;
11943;SDS011;6031;50.220;10.122;2023-02-22T09:16:36;11.63;;;8.60;;
11943;SDS011;6031;50.220;10.122;2023-02-22T09:19:02;22.10;;;13.67;;
11943;SDS011;6031;50.220;10.122;2023-02-22T09:21:27;22.67;;;14.40;;
11943;SDS011;6031;50.220;10.122;2023-02-22T09:23:53;13.63;;;9.87;;
11943;SDS011;6031;50.220;10.122;2023-02-22T09:26:19;12.97;;;9.87;;
11943;SDS011;6031;50.220;10.122;2023-02-22T09:28:47;10.00;;;7.50;;
11943;SDS011;6031;50.220;10.122;2023-02-22T09:31:13;9.83;;;8.07;;
11943;SDS011;6031;50.220;10.122;2023-02-22T09:33:39;9.67;;;6.90;;
11943;SDS011;6031;50.220;10.122;2023-02-22T09:36:05;9.27;;;5.97;;
11943;SDS011;6031;50.220;10.122;2023-02-22T09:38:31;10.40;;;7.83;;
11943;SDS011;6031;50.220;10.122;2023-02-22T09:41:06;9.47;;;6.40;;
11943;SDS011;6031;50.220;10.122;2023-02-22T09:43:52;7.53;;;5.83;;
11943;SDS011;6031;50.220;10.122;2023-02-22T09:46:36;7.60;;;6.53;;
11943;SDS011;6031;50.220;10.122;2023-02-22T09:49:08;8.83;;;5.00;;
11943;SDS011;6031;50.220;10.122;2023-02-22T09:51:45;10.33;;;7.17;;
11943;SDS011;6031;50.220;10.122;2023-02-22T09:57:17;8.63;;;7.73;;
11943;SDS011;6031;50.220;10.122;2023-02-22T09:59:59;6.70;;;5.30;;
11943;SDS011;6031;50.220;10.122;2023-02-22T10:02:38;7.47;;;6.77;;
11943;SDS011;6031;50.220;10.122;2023-02-22T10:05:34;9.03;;;6.27;;
11943;SDS011;6031;50.220;10.122;2023-02-22T10:08:04;7.23;;;6.13;;
11943;SDS011;6031;50.220;10.122;2023-02-22T10:10:37;7.60;;;6.80;;
11943;SDS011;6031;50.220;10.122;2023-02-22T10:15:53;10.00;;;6.97;;
11943;SDS011;6031;50.220;10.122;2023-02-22T10:27:03;6.67;;;6.07;;
11943;SDS011;6031;50.220;10.122;2023-02-22T10:32:05;7.53;;;6.60;;
11943;SDS011;6031;50.220;10.122;2023-02-22T10:34:40;8.10;;;6.70;;
11943;SDS011;6031;50.220;10.122;2023-02-22T10:39:50;6.60;;;5.90;;
11943;SDS011;6031;50.220;10.122;2023-02-22T10:42:20;7.07;;;6.37;;
11943;SDS011;6031;50.220;10.122;2023-02-22T10:44:49;8.23;;;5.87;;
11943;SDS011;6031;50.220;10.122;2023-02-22T10:47:14;8.73;;;6.70;;
11943;SDS011;6031;50.220;10.122;2023-02-22T10:49:43;5.30;;;4.77;;
11943;SDS011;6031;50.220;10.122;2023-02-22T10:52:36;7.13;;;5.97;;
11943;SDS011;6031;50.220;10.122;2023-02-22T10:55:02;8.47;;;6.10;;
11943;SDS011;6031;50.220;10.122;2023-02-22T10:57:31;7.20;;;6.17;;
11943;SDS011;6031;50.220;10.122;2023-02-22T11:00:16;7.43;;;6.10;;
11943;SDS011;6031;50.220;10.122;2023-02-22T11:02:51;4.93;;;4.43;;
11943;SDS011;6031;50.220;10.122;2023-02-22T11:08:15;6.07;;;5.50;;
11943;SDS011;6031;50.220;10.122;2023-02-22T11:10:55;7.33;;;6.30;;
11943;SDS011;6031;50.220;10.122;2023-02-22T11:13:28;7.30;;;6.40;;
11943;SDS011;6031;50.220;10.122;2023-02-22T11:15:54;6.97;;;6.27;;
11943;SDS011;6031;50.220;10.122;2023-02-22T11:18:25;9.10;;;6.70;;
11943;SDS011;6031;50.220;10.122;2023-02-22T11:21:06;7.27;;;6.47;;
11943;SDS011;6031;50.220;10.122;2023-02-22T11:23:36;7.53;;;6.73;;
11943;SDS011;6031;50.220;10.122;2023-02-22T11:28:31;8.03;;;6.60;;
11943;SDS011;6031;50.220;10.122;2023-02-22T11:31:07;7.50;;;6.33;;
11943;SDS011;6031;50.220;10.122;2023-02-22T11:33:39;8.50;;;6.70;;
11943;SDS011;6031;50.220;10.122;2023-02-22T11:36:13;5.57;;;4.80;;
11943;SDS011;6031;50.220;10.122;2023-02-22T11:38:54;6.60;;;5.50;;
11943;SDS011;6031;50.220;10.122;2023-02-22T11:41:27;6.37;;;5.37;;
11943;SDS011;6031;50.220;10.122;2023-02-22T11:43:54;5.63;;;5.00;;
11943;SDS011;6031;50.220;10.122;2023-02-22T11:46:37;9.10;;;7.27;;
11943;SDS011;6031;50.220;10.122;2023-02-22T11:49:07;7.90;;;6.43;;
11943;SDS011;6031;50.220;10.122;2023-02-22T11:57:24;7.70;;;6.50;;
11943;SDS011;6031;50.220;10.122;2023-02-22T12:03:11;7.73;;;6.87;;
11943;SDS011;6031;50.220;10.122;2023-02-22T12:11:25;7.90;;;6.53;;
11943;SDS011;6031;50.220;10.122;2023-02-22T12:19:44;6.63;;;6.03;;
11943;SDS011;6031;50.220;10.122;2023-02-22T12:22:46;6.60;;;5.90;;
11943;SDS011;6031;50.220;10.122;2023-02-22T12:28:02;7.77;;;4.87;;
11943;SDS011;6031;50.220;10.122;2023-02-22T12:30:36;6.00;;;5.40;;
11943;SDS011;6031;50.220;10.122;2023-02-22T12:33:13;6.00;;;5.20;;
11943;SDS011;6031;50.220;10.122;2023-02-22T12:35:43;6.30;;;5.67;;
11943;SDS011;6031;50.220;10.122;2023-02-22T12:43:41;5.47;;;4.73;;
11943;SDS011;6031;50.220;10.122;2023-02-22T12:46:29;5.50;;;5.00;;
11943;SDS011;6031;50.220;10.122;2023-02-22T12:49:05;5.70;;;5.10;;
11943;SDS011;6031;50.220;10.122;2023-02-22T12:57:02;6.43;;;5.83;;
11943;SDS011;6031;50.220;10.122;2023-02-22T13:04:46;7.10;;;6.00;;
11943;SDS011;6031;50.220;10.122;2023-02-22T13:09:48;7.23;;;6.13;;
11943;SDS011;6031;50.220;10.122;2023-02-22T13:12:25;6.00;;;5.43;;
11943;SDS011;6031;50.220;10.122;2023-02-22T13:15:04;5.70;;;5.10;;
11943;SDS011;6031;50.220;10.122;2023-02-22T13:18:01;6.10;;;5.43;;
11943;SDS011;6031;50.220;10.122;2023-02-22T13:20:46;6.43;;;5.73;;
11943;SDS011;6031;50.220;10.122;2023-02-22T13:28:44;6.07;;;5.47;;
11943;SDS011;6031;50.220;10.122;2023-02-22T13:45:58;5.60;;;5.07;;
11943;SDS011;6031;50.220;10.122;2023-02-22T13:49:04;4.73;;;4.33;;
11943;SDS011;6031;50.220;10.122;2023-02-22T13:51:46;5.53;;;5.10;;
11943;SDS011;6031;50.220;10.122;2023-02-22T13:57:28;5.47;;;4.90;;
11943;SDS011;6031;50.220;10.122;2023-02-22T14:05:53;5.73;;;5.17;;
11943;SDS011;6031;50.220;10.122;2023-02-22T14:10:47;5.70;;;5.20;;
11943;SDS011;6031;50.220;10.122;2023-02-22T14:13:19;5.57;;;5.00;;
11943;SDS011;6031;50.220;10.122;2023-02-22T14:18:27;6.07;;;5.30;;
11943;SDS011;6031;50.220;10.122;2023-02-22T14:21:19;5.43;;;4.93;;
11943;SDS011;6031;50.220;10.122;2023-02-22T14:23:52;3.87;;;3.47;;
11943;SDS011;6031;50.220;10.122;2023-02-22T14:26:24;5.20;;;4.70;;
11943;SDS011;6031;50.220;10.122;2023-02-22T14:29:17;5.57;;;5.07;;
11943;SDS011;6031;50.220;10.122;2023-02-22T14:39:47;5.00;;;4.47;;
11943;SDS011;6031;50.220;10.122;2023-02-22T14:42:41;5.50;;;5.00;;
11943;SDS011;6031;50.220;10.122;2023-02-22T14:47:50;6.87;;;4.87;;
11943;SDS011;6031;50.220;10.122;2023-02-22T14:50:32;5.43;;;4.33;;
11943;SDS011;6031;50.220;10.122;2023-02-22T14:55:41;5.23;;;4.73;;
11943;SDS011;6031;50.220;10.122;2023-02-22T14:58:15;8.00;;;5.13;;
11943;SDS011;6031;50.220;10.122;2023-02-22T15:00:50;5.67;;;5.17;;
11943;SDS011;6031;50.220;10.122;2023-02-22T15:05:45;4.53;;;4.13;;
11943;SDS011;6031;50.220;10.122;2023-02-22T15:08:13;4.97;;;4.47;;
11943;SDS011;6031;50.220;10.122;2023-02-22T15:10:44;7.53;;;5.23;;
11943;SDS011;6031;50.220;10.122;2023-02-22T15:13:21;4.87;;;4.47;;
11943;SDS011;6031;50.220;10.122;2023-02-22T15:15:56;7.10;;;5.17;;
11943;SDS011;6031;50.220;10.122;2023-02-22T15:18:37;6.43;;;4.50;;
11943;SDS011;6031;50.220;10.122;2023-02-22T15:21:12;5.30;;;4.27;;
11943;SDS011;6031;50.220;10.122;2023-02-22T15:29:07;6.23;;;4.83;;
11943;SDS011;6031;50.220;10.122;2023-02-22T15:31:37;5.80;;;4.40;;
11943;SDS011;6031;50.220;10.122;2023-02-22T15:36:57;5.00;;;4.50;;
11943;SDS011;6031;50.220;10.122;2023-02-22T15:39:36;4.73;;;4.27;;
11943;SDS011;6031;50.220;10.122;2023-02-22T15:44:37;6.20;;;5.10;;
11943;SDS011;6031;50.220;10.122;2023-02-22T15:47:05;5.00;;;4.50;;
11943;SDS011;6031;50.220;10.122;2023-02-22T15:49:35;5.53;;;5.00;;
11943;SDS011;6031;50.220;10.122;2023-02-22T15:52:06;5.73;;;4.90;;
11943;SDS011;6031;50.220;10.122;2023-02-22T15:54:40;6.03;;;5.40;;
11943;SDS011;6031;50.220;10.122;2023-02-22T15:57:08;5.17;;;4.47;;
11943;SDS011;6031;50.220;10.122;2023-02-22T15:59:39;10.10;;;7.47;;
11943;SDS011;6031;50.220;10.122;2023-02-22T16:02:17;11.93;;;8.07;;
11943;SDS011;6031;50.220;10.122;2023-02-22T16:04:57;11.83;;;8.53;;
11943;SDS011;6031;50.220;10.122;2023-02-22T16:07:46;9.80;;;6.70;;
11943;SDS011;6031;50.220;10.122;2023-02-22T16:10:24;9.90;;;5.73;;
11943;SDS011;6031;50.220;10.122;2023-02-22T16:15:31;8.70;;;6.40;;
11943;SDS011;6031;50.220;10.122;2023-02-22T16:17:56;6.43;;;4.97;;
11943;SDS011;6031;50.220;10.122;2023-02-22T16:20:40;4.40;;;3.60;;
11943;SDS011;6031;50.220;10.122;2023-02-22T16:23:21;4.93;;;4.33;;
11943;SDS011;6031;50.220;10.122;2023-02-22T16:26:00;5.00;;;4.50;;
11943;SDS011;6031;50.220;10.122;2023-02-22T16:29:10;6.10;;;4.53;;
11943;SDS011;6031;50.220;10.122;2023-02-22T16:31:48;5.43;;;4.93;;
11943;SDS011;6031;50.220;10.122;2023-02-22T16:34:14;9.90;;;7.50;;
11943;SDS011;6031;50.220;10.122;2023-02-22T16:36:43;8.57;;;6.20;;
11943;SDS011;6031;50.220;10.122;2023-02-22T16:39:13;9.03;;;7.33;;
11943;SDS011;6031;50.220;10.122;2023-02-22T16:41:46;9.43;;;7.67;;
11943;SDS011;6031;50.220;10.122;2023-02-22T16:44:11;12.43;;;7.73;;
11943;SDS011;6031;50.220;10.122;2023-02-22T16:46:37;8.53;;;7.63;;
11943;SDS011;6031;50.220;10.122;2023-02-22T16:49:04;10.37;;;7.87;;
11943;SDS011;6031;50.220;10.122;2023-02-22T16:51:31;11.43;;;7.63;;
11943;SDS011;6031;50.220;10.122;2023-02-22T16:54:04;14.13;;;8.53;;
11943;SDS011;6031;50.220;10.122;2023-02-22T16:56:34;13.60;;;8.47;;
11943;SDS011;6031;50.220;10.122;2023-02-22T16:59:00;14.37;;;8.70;;
11943;SDS011;6031;50.220;10.122;2023-02-22T17:01:30;12.20;;;7.83;;
11943;SDS011;6031;50.220;10.122;2023-02-22T17:03:57;7.97;;;7.13;;
11943;SDS011;6031;50.220;10.122;2023-02-22T17:06:23;7.47;;;6.57;;
11943;SDS011;6031;50.220;10.122;2023-02-22T17:08:48;8.30;;;7.33;;
11943;SDS011;6031;50.220;10.122;2023-02-22T17:11:15;13.30;;;9.47;;
11943;SDS011;6031;50.220;10.122;2023-02-22T17:13:41;10.83;;;8.77;;
11943;SDS011;6031;50.220;10.122;2023-02-22T17:16:12;11.67;;;8.87;;
11943;SDS011;6031;50.220;10.122;2023-02-22T17:18:38;12.63;;;8.83;;
11943;SDS011;6031;50.220;10.122;2023-02-22T17:21:04;16.33;;;9.37;;
11943;SDS011;6031;50.220;10.122;2023-02-22T17:23:29;11.77;;;7.43;;
11943;SDS011;6031;50.220;10.122;2023-02-22T17:25:56;20.80;;;11.37;;
11943;SDS011;6031;50.220;10.122;2023-02-22T17:28:23;19.00;;;10.60;;
11943;SDS011;6031;50.220;10.122;2023-02-22T17:30:50;20.53;;;11.93;;